< < Back
Terminal Aerodrome Forecast


Current Version              Previous Versions:   1  2  3  4  5  6  7  8  9  

Terminal Aerodrome Forecast

959
FTUS42 KILM 232300
TAFFLO
TAF
KFLO 232321Z 2400/2424 31011G16KT P6SM SKC
     FM240200 03007KT P6SM SKC
     FM241300 08009KT P6SM SKC
     FM241900 14007KT P6SM SKC=

Latest METAR

741
SAUS70 KWBC 240200 RRK
MTRFLO
METAR KFLO 240153Z AUTO 02004KT 10SM CLR 15/04 A2991 RMK AO2 SLP125
T01500044


USA.gov is the U.S. government's official web portal to all federal, state and local government web resources and services.